Main page
METAR-TAF:

METAR-TAF

Airports :

Dehradun Airport

Dehradun, India

latitude: 30-11-23N, longitude: 78-10-49E, elevation: 558 m

METAR: missing

Time: 04:13 (22:43 UTC)

Forecast

The report was made 11 hours and 43 minutes ago, at 11:00 UTC
Forecast valid from 11 at 12 UTC to 11 at 21 UTC
Wind 6 kt from the West
Visibility: 6000 m
Becoming
from 11 at 13 UTC to 11 at 15 UTC
Wind 4 kt from the Northeast
Visibility: 3500 m
haze

TAF: VIDN 111100Z 1112/1121 28006KT 6000 NSC BECMG 1113/1115 04004KT 3500 HZ

Weather observations and forecasts of more than 4000 airports (METAR and TAF reports).

The available stations are represented by yellow and red dots on the map.

Hover mouse over dot to see the name of the station.

Then click to see weather observations and forecasts.

To change the map : click on the green buttons with a black cross to zoom in, on the green button with a dash to zoom out, or on the green arrows for adjacent maps.


METAR-TAF: